sensor_id;sensor_type;location;lat;lon;timestamp;temperature;humidity
30300;DHT22;17110;52.602;12.998;2023-03-03T00:01:03;-0.30;99.90
30300;DHT22;17110;52.602;12.998;2023-03-03T00:03:29;-0.30;99.90
30300;DHT22;17110;52.602;12.998;2023-03-03T00:05:55;-0.30;99.90
30300;DHT22;17110;52.602;12.998;2023-03-03T00:08:21;-0.40;99.90
30300;DHT22;17110;52.602;12.998;2023-03-03T00:10:48;-0.40;99.90
30300;DHT22;17110;52.602;12.998;2023-03-03T00:13:25;-0.50;99.90
30300;DHT22;17110;52.602;12.998;2023-03-03T00:15:52;-0.70;99.90
30300;DHT22;17110;52.602;12.998;2023-03-03T00:18:29;-0.40;99.90
30300;DHT22;17110;52.602;12.998;2023-03-03T00:20:58;-0.40;99.90
30300;DHT22;17110;52.602;12.998;2023-03-03T00:23:39;-0.30;99.90
30300;DHT22;17110;52.602;12.998;2023-03-03T00:26:28;-0.20;99.90
30300;DHT22;17110;52.602;12.998;2023-03-03T00:28:55;-0.20;99.90
30300;DHT22;17110;52.602;12.998;2023-03-03T00:31:34;-0.10;99.90
30300;DHT22;17110;52.602;12.998;2023-03-03T00:34:24;-0.20;99.90
30300;DHT22;17110;52.602;12.998;2023-03-03T00:36:58;-0.40;99.90
30300;DHT22;17110;52.602;12.998;2023-03-03T00:39:36;-0.50;99.90
30300;DHT22;17110;52.602;12.998;2023-03-03T00:42:13;-0.50;99.90
30300;DHT22;17110;52.602;12.998;2023-03-03T00:49:53;-0.40;99.90
30300;DHT22;17110;52.602;12.998;2023-03-03T00:52:19;-0.30;99.90
30300;DHT22;17110;52.602;12.998;2023-03-03T00:54:46;-0.40;99.90
30300;DHT22;17110;52.602;12.998;2023-03-03T00:57:12;-0.40;99.90
30300;DHT22;17110;52.602;12.998;2023-03-03T00:59:38;-0.20;99.90
30300;DHT22;17110;52.602;12.998;2023-03-03T01:02:05;-0.40;99.90
30300;DHT22;17110;52.602;12.998;2023-03-03T01:04:31;-0.10;99.90
30300;DHT22;17110;52.602;12.998;2023-03-03T01:06:56;-0.20;99.90
30300;DHT22;17110;52.602;12.998;2023-03-03T01:09:22;-0.30;99.90
30300;DHT22;17110;52.602;12.998;2023-03-03T01:11:48;-0.30;99.90
30300;DHT22;17110;52.602;12.998;2023-03-03T01:14:14;-0.30;99.90
30300;DHT22;17110;52.602;12.998;2023-03-03T01:16:40;-0.10;99.90
30300;DHT22;17110;52.602;12.998;2023-03-03T01:19:06;-0.30;99.90
30300;DHT22;17110;52.602;12.998;2023-03-03T01:21:32;-0.20;99.90
30300;DHT22;17110;52.602;12.998;2023-03-03T01:23:58;-0.20;99.90
30300;DHT22;17110;52.602;12.998;2023-03-03T01:26:24;-0.10;99.90
30300;DHT22;17110;52.602;12.998;2023-03-03T01:28:49;0.00;99.90
30300;DHT22;17110;52.602;12.998;2023-03-03T01:31:15;-0.10;99.90
30300;DHT22;17110;52.602;12.998;2023-03-03T01:33:42;-0.10;99.90
30300;DHT22;17110;52.602;12.998;2023-03-03T01:36:08;0.10;99.90
30300;DHT22;17110;52.602;12.998;2023-03-03T01:38:37;0.10;99.90
30300;DHT22;17110;52.602;12.998;2023-03-03T01:41:03;0.00;99.90
30300;DHT22;17110;52.602;12.998;2023-03-03T01:43:31;0.00;99.90
30300;DHT22;17110;52.602;12.998;2023-03-03T01:50:59;0.00;99.90
30300;DHT22;17110;52.602;12.998;2023-03-03T01:53:47;0.00;99.90
30300;DHT22;17110;52.602;12.998;2023-03-03T01:56:13;0.20;99.90
30300;DHT22;17110;52.602;12.998;2023-03-03T01:58:44;0.20;99.90
30300;DHT22;17110;52.602;12.998;2023-03-03T02:01:14;0.00;99.90
30300;DHT22;17110;52.602;12.998;2023-03-03T02:03:42;0.10;99.90
30300;DHT22;17110;52.602;12.998;2023-03-03T02:06:14;0.10;99.90
30300;DHT22;17110;52.602;12.998;2023-03-03T02:08:56;0.10;99.90
30300;DHT22;17110;52.602;12.998;2023-03-03T02:11:24;0.10;99.90
30300;DHT22;17110;52.602;12.998;2023-03-03T02:13:51;0.30;99.90
30300;DHT22;17110;52.602;12.998;2023-03-03T02:16:17;0.30;99.90
30300;DHT22;17110;52.602;12.998;2023-03-03T02:18:43;0.20;99.90
30300;DHT22;17110;52.602;12.998;2023-03-03T02:21:15;0.20;99.90
30300;DHT22;17110;52.602;12.998;2023-03-03T02:26:22;0.20;99.90
30300;DHT22;17110;52.602;12.998;2023-03-03T02:28:49;-0.30;99.90
30300;DHT22;17110;52.602;12.998;2023-03-03T02:31:17;0.00;99.90
30300;DHT22;17110;52.602;12.998;2023-03-03T02:33:46;0.00;99.90
30300;DHT22;17110;52.602;12.998;2023-03-03T02:36:23;0.20;99.90
30300;DHT22;17110;52.602;12.998;2023-03-03T02:42:00;0.20;99.90
30300;DHT22;17110;52.602;12.998;2023-03-03T02:44:28;0.10;99.90
30300;DHT22;17110;52.602;12.998;2023-03-03T02:46:55;0.00;99.90
30300;DHT22;17110;52.602;12.998;2023-03-03T02:49:25;0.10;99.90
30300;DHT22;17110;52.602;12.998;2023-03-03T02:51:52;0.00;99.90
30300;DHT22;17110;52.602;12.998;2023-03-03T02:54:19;0.00;99.90
30300;DHT22;17110;52.602;12.998;2023-03-03T02:56:46;-0.10;99.90
30300;DHT22;17110;52.602;12.998;2023-03-03T02:59:12;0.20;99.90
30300;DHT22;17110;52.602;12.998;2023-03-03T03:01:38;0.40;99.90
30300;DHT22;17110;52.602;12.998;2023-03-03T03:04:12;0.10;99.90
30300;DHT22;17110;52.602;12.998;2023-03-03T03:06:39;0.20;99.90
30300;DHT22;17110;52.602;12.998;2023-03-03T03:09:06;0.30;99.90
30300;DHT22;17110;52.602;12.998;2023-03-03T03:11:32;0.30;99.90
30300;DHT22;17110;52.602;12.998;2023-03-03T03:14:00;0.20;99.90
30300;DHT22;17110;52.602;12.998;2023-03-03T03:16:26;0.10;99.90
30300;DHT22;17110;52.602;12.998;2023-03-03T03:18:51;-0.10;99.90
30300;DHT22;17110;52.602;12.998;2023-03-03T03:21:17;-0.10;99.90
30300;DHT22;17110;52.602;12.998;2023-03-03T03:23:43;0.10;99.90
30300;DHT22;17110;52.602;12.998;2023-03-03T03:26:10;0.20;99.90
30300;DHT22;17110;52.602;12.998;2023-03-03T03:28:35;0.00;99.90
30300;DHT22;17110;52.602;12.998;2023-03-03T03:31:02;-0.10;99.90
30300;DHT22;17110;52.602;12.998;2023-03-03T03:33:28;-0.10;99.90
30300;DHT22;17110;52.602;12.998;2023-03-03T03:35:54;-0.10;99.90
30300;DHT22;17110;52.602;12.998;2023-03-03T03:38:21;-0.20;99.90
30300;DHT22;17110;52.602;12.998;2023-03-03T03:40:47;-0.30;99.90
30300;DHT22;17110;52.602;12.998;2023-03-03T03:43:13;-0.10;99.90
30300;DHT22;17110;52.602;12.998;2023-03-03T03:45:41;0.00;99.90
30300;DHT22;17110;52.602;12.998;2023-03-03T03:48:07;0.00;99.90
30300;DHT22;17110;52.602;12.998;2023-03-03T03:50:33;-0.10;99.90
30300;DHT22;17110;52.602;12.998;2023-03-03T03:52:58;-0.10;99.90
30300;DHT22;17110;52.602;12.998;2023-03-03T03:55:24;-0.20;99.90
30300;DHT22;17110;52.602;12.998;2023-03-03T03:57:50;-0.30;99.90
30300;DHT22;17110;52.602;12.998;2023-03-03T04:00:15;-0.40;99.90
30300;DHT22;17110;52.602;12.998;2023-03-03T04:02:41;-0.30;99.90
30300;DHT22;17110;52.602;12.998;2023-03-03T04:05:07;-0.30;99.90
30300;DHT22;17110;52.602;12.998;2023-03-03T04:07:33;-0.40;99.90
30300;DHT22;17110;52.602;12.998;2023-03-03T04:09:59;-0.40;99.90
30300;DHT22;17110;52.602;12.998;2023-03-03T04:12:25;-0.40;99.90
30300;DHT22;17110;52.602;12.998;2023-03-03T04:14:50;-0.40;99.90
30300;DHT22;17110;52.602;12.998;2023-03-03T04:17:18;-0.20;99.90
30300;DHT22;17110;52.602;12.998;2023-03-03T04:19:44;-0.20;99.90
30300;DHT22;17110;52.602;12.998;2023-03-03T04:22:10;-0.30;99.90
30300;DHT22;17110;52.602;12.998;2023-03-03T04:24:37;-0.20;99.90
30300;DHT22;17110;52.602;12.998;2023-03-03T04:27:03;-0.10;99.90
30300;DHT22;17110;52.602;12.998;2023-03-03T04:29:28;0.10;99.90
30300;DHT22;17110;52.602;12.998;2023-03-03T04:31:54;-0.20;99.90
30300;DHT22;17110;52.602;12.998;2023-03-03T04:34:20;-0.40;99.90
30300;DHT22;17110;52.602;12.998;2023-03-03T04:36:46;-0.60;99.90
30300;DHT22;17110;52.602;12.998;2023-03-03T04:39:12;-0.50;99.90
30300;DHT22;17110;52.602;12.998;2023-03-03T04:41:37;-0.60;99.90
30300;DHT22;17110;52.602;12.998;2023-03-03T04:44:03;-0.50;99.90
30300;DHT22;17110;52.602;12.998;2023-03-03T04:46:29;-0.40;99.90
30300;DHT22;17110;52.602;12.998;2023-03-03T04:48:54;-0.40;99.90
30300;DHT22;17110;52.602;12.998;2023-03-03T04:51:21;-0.40;99.90
30300;DHT22;17110;52.602;12.998;2023-03-03T04:53:47;-0.50;99.90
30300;DHT22;17110;52.602;12.998;2023-03-03T04:56:13;-0.40;99.90
30300;DHT22;17110;52.602;12.998;2023-03-03T04:58:39;-0.40;99.90
30300;DHT22;17110;52.602;12.998;2023-03-03T05:01:05;-0.50;99.90
30300;DHT22;17110;52.602;12.998;2023-03-03T05:03:31;-0.50;99.90
30300;DHT22;17110;52.602;12.998;2023-03-03T05:05:56;-0.30;99.90
30300;DHT22;17110;52.602;12.998;2023-03-03T05:08:22;-0.40;99.90
30300;DHT22;17110;52.602;12.998;2023-03-03T05:10:53;-0.40;99.90
30300;DHT22;17110;52.602;12.998;2023-03-03T05:13:18;-0.40;99.90
30300;DHT22;17110;52.602;12.998;2023-03-03T05:15:54;-0.40;99.90
30300;DHT22;17110;52.602;12.998;2023-03-03T05:18:22;-0.40;99.90
30300;DHT22;17110;52.602;12.998;2023-03-03T05:20:48;-0.60;99.90
30300;DHT22;17110;52.602;12.998;2023-03-03T05:23:14;-0.50;99.90
30300;DHT22;17110;52.602;12.998;2023-03-03T05:25:40;-0.50;99.90
30300;DHT22;17110;52.602;12.998;2023-03-03T05:28:07;-0.30;99.90
30300;DHT22;17110;52.602;12.998;2023-03-03T05:30:33;-0.50;99.90
30300;DHT22;17110;52.602;12.998;2023-03-03T05:32:59;-0.50;99.90
30300;DHT22;17110;52.602;12.998;2023-03-03T05:35:25;-0.50;99.90
30300;DHT22;17110;52.602;12.998;2023-03-03T05:37:51;-0.30;99.90
30300;DHT22;17110;52.602;12.998;2023-03-03T05:40:17;-0.30;99.90
30300;DHT22;17110;52.602;12.998;2023-03-03T05:42:43;-0.20;99.90
30300;DHT22;17110;52.602;12.998;2023-03-03T05:45:09;-0.20;99.90
30300;DHT22;17110;52.602;12.998;2023-03-03T05:47:35;-0.30;99.90
30300;DHT22;17110;52.602;12.998;2023-03-03T05:50:01;-0.40;99.90
30300;DHT22;17110;52.602;12.998;2023-03-03T05:52:27;-0.30;99.90
30300;DHT22;17110;52.602;12.998;2023-03-03T05:54:52;-0.50;99.90
30300;DHT22;17110;52.602;12.998;2023-03-03T05:57:18;-0.60;99.90
30300;DHT22;17110;52.602;12.998;2023-03-03T05:59:44;-0.50;99.90
30300;DHT22;17110;52.602;12.998;2023-03-03T06:02:09;-0.50;99.90
30300;DHT22;17110;52.602;12.998;2023-03-03T06:04:35;-0.50;99.90
30300;DHT22;17110;52.602;12.998;2023-03-03T06:07:01;-0.40;99.90
30300;DHT22;17110;52.602;12.998;2023-03-03T06:09:26;-0.50;99.90
30300;DHT22;17110;52.602;12.998;2023-03-03T06:11:52;-0.50;99.90
30300;DHT22;17110;52.602;12.998;2023-03-03T06:14:21;-0.20;99.90
30300;DHT22;17110;52.602;12.998;2023-03-03T06:16:47;-0.20;99.90
30300;DHT22;17110;52.602;12.998;2023-03-03T06:19:13;-0.30;99.90
30300;DHT22;17110;52.602;12.998;2023-03-03T06:21:40;-0.30;99.90
30300;DHT22;17110;52.602;12.998;2023-03-03T06:24:06;-0.10;99.90
30300;DHT22;17110;52.602;12.998;2023-03-03T06:26:32;-0.10;99.90
30300;DHT22;17110;52.602;12.998;2023-03-03T06:28:58;-0.10;99.90
30300;DHT22;17110;52.602;12.998;2023-03-03T06:31:24;-0.10;99.90
30300;DHT22;17110;52.602;12.998;2023-03-03T06:33:49;-0.20;99.90
30300;DHT22;17110;52.602;12.998;2023-03-03T06:36:16;0.00;99.90
30300;DHT22;17110;52.602;12.998;2023-03-03T06:38:42;-0.10;99.90
30300;DHT22;17110;52.602;12.998;2023-03-03T06:41:08;-0.20;99.90
30300;DHT22;17110;52.602;12.998;2023-03-03T06:43:35;-0.30;99.90
30300;DHT22;17110;52.602;12.998;2023-03-03T06:46:01;-0.20;99.90
30300;DHT22;17110;52.602;12.998;2023-03-03T06:48:28;-0.20;99.90
30300;DHT22;17110;52.602;12.998;2023-03-03T06:50:53;-0.30;99.90
30300;DHT22;17110;52.602;12.998;2023-03-03T06:53:19;-0.30;99.90
30300;DHT22;17110;52.602;12.998;2023-03-03T06:55:45;-0.20;99.90
30300;DHT22;17110;52.602;12.998;2023-03-03T06:58:16;-0.30;99.90
30300;DHT22;17110;52.602;12.998;2023-03-03T07:00:59;-0.10;99.90
30300;DHT22;17110;52.602;12.998;2023-03-03T07:03:30;-0.10;99.90
30300;DHT22;17110;52.602;12.998;2023-03-03T07:05:57;-0.20;99.90
30300;DHT22;17110;52.602;12.998;2023-03-03T07:08:23;-0.10;99.90
30300;DHT22;17110;52.602;12.998;2023-03-03T07:10:51;0.10;99.90
30300;DHT22;17110;52.602;12.998;2023-03-03T07:13:25;0.00;99.90
30300;DHT22;17110;52.602;12.998;2023-03-03T07:15:52;0.20;99.90
30300;DHT22;17110;52.602;12.998;2023-03-03T07:21:16;0.30;99.90
30300;DHT22;17110;52.602;12.998;2023-03-03T07:23:43;0.40;99.90
30300;DHT22;17110;52.602;12.998;2023-03-03T07:26:20;0.30;99.90
30300;DHT22;17110;52.602;12.998;2023-03-03T07:28:56;0.30;99.90
30300;DHT22;17110;52.602;12.998;2023-03-03T07:31:29;0.50;99.90
30300;DHT22;17110;52.602;12.998;2023-03-03T07:33:56;0.60;99.90
30300;DHT22;17110;52.602;12.998;2023-03-03T07:36:36;0.50;99.90
30300;DHT22;17110;52.602;12.998;2023-03-03T07:42:11;0.70;99.90
30300;DHT22;17110;52.602;12.998;2023-03-03T07:44:40;0.80;99.90
30300;DHT22;17110;52.602;12.998;2023-03-03T07:47:27;0.70;99.90
30300;DHT22;17110;52.602;12.998;2023-03-03T07:49:59;0.60;99.90
30300;DHT22;17110;52.602;12.998;2023-03-03T07:52:37;0.50;99.90
30300;DHT22;17110;52.602;12.998;2023-03-03T07:57:51;0.90;99.90
30300;DHT22;17110;52.602;12.998;2023-03-03T08:02:59;0.90;99.90
30300;DHT22;17110;52.602;12.998;2023-03-03T08:05:43;0.80;99.90
30300;DHT22;17110;52.602;12.998;2023-03-03T08:10:51;0.80;99.90
30300;DHT22;17110;52.602;12.998;2023-03-03T08:13:27;0.80;99.90
30300;DHT22;17110;52.602;12.998;2023-03-03T08:21:07;1.00;99.90
30300;DHT22;17110;52.602;12.998;2023-03-03T08:23:34;1.10;99.90
30300;DHT22;17110;52.602;12.998;2023-03-03T08:26:00;1.40;99.90
30300;DHT22;17110;52.602;12.998;2023-03-03T08:28:27;1.40;99.90
30300;DHT22;17110;52.602;12.998;2023-03-03T08:30:52;1.60;99.90
30300;DHT22;17110;52.602;12.998;2023-03-03T08:33:18;1.50;99.90
30300;DHT22;17110;52.602;12.998;2023-03-03T08:35:44;1.50;99.90
30300;DHT22;17110;52.602;12.998;2023-03-03T08:38:11;1.40;99.90
30300;DHT22;17110;52.602;12.998;2023-03-03T08:40:37;1.40;99.90
30300;DHT22;17110;52.602;12.998;2023-03-03T08:43:05;1.40;99.90
30300;DHT22;17110;52.602;12.998;2023-03-03T08:45:31;1.40;99.90
30300;DHT22;17110;52.602;12.998;2023-03-03T08:47:57;1.50;99.90
30300;DHT22;17110;52.602;12.998;2023-03-03T08:50:24;1.30;99.90
30300;DHT22;17110;52.602;12.998;2023-03-03T08:52:50;1.30;99.90
30300;DHT22;17110;52.602;12.998;2023-03-03T08:55:16;1.50;99.90
30300;DHT22;17110;52.602;12.998;2023-03-03T08:57:42;1.70;99.90
30300;DHT22;17110;52.602;12.998;2023-03-03T09:00:10;1.90;99.90
30300;DHT22;17110;52.602;12.998;2023-03-03T09:02:36;1.90;99.90
30300;DHT22;17110;52.602;12.998;2023-03-03T09:05:03;2.00;99.90
30300;DHT22;17110;52.602;12.998;2023-03-03T09:07:28;2.10;99.90
30300;DHT22;17110;52.602;12.998;2023-03-03T09:09:54;2.10;99.90
30300;DHT22;17110;52.602;12.998;2023-03-03T09:12:34;2.30;99.90
30300;DHT22;17110;52.602;12.998;2023-03-03T09:15:23;2.20;99.90
30300;DHT22;17110;52.602;12.998;2023-03-03T09:17:50;2.10;99.90
30300;DHT22;17110;52.602;12.998;2023-03-03T09:22:52;2.00;99.90
30300;DHT22;17110;52.602;12.998;2023-03-03T09:25:38;2.00;99.90
30300;DHT22;17110;52.602;12.998;2023-03-03T09:28:18;2.00;99.90
30300;DHT22;17110;52.602;12.998;2023-03-03T09:30:48;2.10;99.90
30300;DHT22;17110;52.602;12.998;2023-03-03T09:33:30;2.00;99.90
30300;DHT22;17110;52.602;12.998;2023-03-03T09:36:10;2.00;99.90
30300;DHT22;17110;52.602;12.998;2023-03-03T09:38:42;2.00;99.90
30300;DHT22;17110;52.602;12.998;2023-03-03T09:50:26;2.20;99.90
30300;DHT22;17110;52.602;12.998;2023-03-03T09:53:29;2.10;99.90
30300;DHT22;17110;52.602;12.998;2023-03-03T09:56:18;2.20;99.90
30300;DHT22;17110;52.602;12.998;2023-03-03T10:02:13;2.30;99.90
30300;DHT22;17110;52.602;12.998;2023-03-03T10:04:57;2.70;99.90
30300;DHT22;17110;52.602;12.998;2023-03-03T10:07:36;2.70;99.90
30300;DHT22;17110;52.602;12.998;2023-03-03T10:13:11;2.40;99.90
30300;DHT22;17110;52.602;12.998;2023-03-03T10:18:11;2.40;99.90
30300;DHT22;17110;52.602;12.998;2023-03-03T10:27:06;2.80;99.90
30300;DHT22;17110;52.602;12.998;2023-03-03T10:33:00;2.50;99.90
30300;DHT22;17110;52.602;12.998;2023-03-03T10:38:01;2.70;99.90
30300;DHT22;17110;52.602;12.998;2023-03-03T10:43:23;3.10;99.90
30300;DHT22;17110;52.602;12.998;2023-03-03T10:48:56;3.20;99.90
30300;DHT22;17110;52.602;12.998;2023-03-03T10:51:26;3.30;99.90
30300;DHT22;17110;52.602;12.998;2023-03-03T10:59:38;3.40;99.90
30300;DHT22;17110;52.602;12.998;2023-03-03T11:06:01;3.20;99.90
30300;DHT22;17110;52.602;12.998;2023-03-03T11:08:37;3.20;99.90
30300;DHT22;17110;52.602;12.998;2023-03-03T11:13:55;2.90;99.90
30300;DHT22;17110;52.602;12.998;2023-03-03T11:16:53;3.00;99.90
30300;DHT22;17110;52.602;12.998;2023-03-03T11:22:44;3.10;99.90
30300;DHT22;17110;52.602;12.998;2023-03-03T11:33:35;3.40;99.90
30300;DHT22;17110;52.602;12.998;2023-03-03T11:36:10;3.80;99.90
30300;DHT22;17110;52.602;12.998;2023-03-03T11:38:52;3.90;99.90
30300;DHT22;17110;52.602;12.998;2023-03-03T11:44:48;3.70;99.90
30300;DHT22;17110;52.602;12.998;2023-03-03T11:47:42;3.80;99.90
30300;DHT22;17110;52.602;12.998;2023-03-03T11:52:50;3.70;99.90
30300;DHT22;17110;52.602;12.998;2023-03-03T11:55:38;3.80;99.90
30300;DHT22;17110;52.602;12.998;2023-03-03T11:58:16;3.80;99.90
30300;DHT22;17110;52.602;12.998;2023-03-03T12:01:07;3.90;99.90
30300;DHT22;17110;52.602;12.998;2023-03-03T12:03:47;3.80;99.90
30300;DHT22;17110;52.602;12.998;2023-03-03T12:09:30;3.80;99.90
30300;DHT22;17110;52.602;12.998;2023-03-03T12:14:53;3.90;99.90
30300;DHT22;17110;52.602;12.998;2023-03-03T12:26:00;4.00;99.90
30300;DHT22;17110;52.602;12.998;2023-03-03T12:28:36;4.00;99.90
30300;DHT22;17110;52.602;12.998;2023-03-03T12:34:37;3.80;99.90
30300;DHT22;17110;52.602;12.998;2023-03-03T12:37:11;4.00;99.90
30300;DHT22;17110;52.602;12.998;2023-03-03T12:40:20;4.20;99.90
30300;DHT22;17110;52.602;12.998;2023-03-03T12:42:46;4.30;99.90
30300;DHT22;17110;52.602;12.998;2023-03-03T12:48:39;4.30;99.90
30300;DHT22;17110;52.602;12.998;2023-03-03T12:56:40;4.20;99.90
30300;DHT22;17110;52.602;12.998;2023-03-03T13:08:05;4.30;99.90
30300;DHT22;17110;52.602;12.998;2023-03-03T13:10:49;4.40;99.90
30300;DHT22;17110;52.602;12.998;2023-03-03T13:13:25;4.70;99.90
30300;DHT22;17110;52.602;12.998;2023-03-03T13:19:07;4.80;99.90
30300;DHT22;17110;52.602;12.998;2023-03-03T13:21:48;4.80;99.90
30300;DHT22;17110;52.602;12.998;2023-03-03T13:27:13;4.60;99.90
30300;DHT22;17110;52.602;12.998;2023-03-03T13:30:22;4.90;99.90
30300;DHT22;17110;52.602;12.998;2023-03-03T13:33:33;4.90;99.90
30300;DHT22;17110;52.602;12.998;2023-03-03T13:36:05;4.90;99.90
30300;DHT22;17110;52.602;12.998;2023-03-03T13:38:36;4.80;99.90
30300;DHT22;17110;52.602;12.998;2023-03-03T13:44:09;4.90;99.90
30300;DHT22;17110;52.602;12.998;2023-03-03T13:47:04;4.50;99.90
30300;DHT22;17110;52.602;12.998;2023-03-03T13:49:37;4.30;99.90
30300;DHT22;17110;52.602;12.998;2023-03-03T13:52:20;4.40;99.90
30300;DHT22;17110;52.602;12.998;2023-03-03T13:55:07;4.40;99.90
30300;DHT22;17110;52.602;12.998;2023-03-03T14:05:50;4.70;99.90
30300;DHT22;17110;52.602;12.998;2023-03-03T14:08:30;4.90;99.90
30300;DHT22;17110;52.602;12.998;2023-03-03T14:16:48;5.30;99.90
30300;DHT22;17110;52.602;12.998;2023-03-03T14:19:33;5.20;99.90
30300;DHT22;17110;52.602;12.998;2023-03-03T14:22:23;5.30;99.90
30300;DHT22;17110;52.602;12.998;2023-03-03T14:25:00;5.30;99.90
30300;DHT22;17110;52.602;12.998;2023-03-03T14:27:39;5.30;99.90
30300;DHT22;17110;52.602;12.998;2023-03-03T14:35:36;5.70;99.90
30300;DHT22;17110;52.602;12.998;2023-03-03T14:38:12;5.60;99.90
30300;DHT22;17110;52.602;12.998;2023-03-03T14:40:40;5.60;99.90
30300;DHT22;17110;52.602;12.998;2023-03-03T14:45:47;5.60;99.90
30300;DHT22;17110;52.602;12.998;2023-03-03T14:48:21;5.60;99.90
30300;DHT22;17110;52.602;12.998;2023-03-03T14:51:14;5.60;99.90
30300;DHT22;17110;52.602;12.998;2023-03-03T14:53:47;5.30;99.90
30300;DHT22;17110;52.602;12.998;2023-03-03T14:56:23;5.60;99.90
30300;DHT22;17110;52.602;12.998;2023-03-03T14:58:52;5.50;99.90
30300;DHT22;17110;52.602;12.998;2023-03-03T15:01:31;5.70;99.90
30300;DHT22;17110;52.602;12.998;2023-03-03T15:06:47;5.60;99.90
30300;DHT22;17110;52.602;12.998;2023-03-03T15:11:53;5.90;99.90
30300;DHT22;17110;52.602;12.998;2023-03-03T15:14:28;5.90;99.90
30300;DHT22;17110;52.602;12.998;2023-03-03T15:17:18;5.80;99.90
30300;DHT22;17110;52.602;12.998;2023-03-03T15:19:58;5.80;99.90
30300;DHT22;17110;52.602;12.998;2023-03-03T15:22:46;5.70;99.90
30300;DHT22;17110;52.602;12.998;2023-03-03T15:25:18;5.90;99.90
30300;DHT22;17110;52.602;12.998;2023-03-03T15:36:55;6.60;99.90
30300;DHT22;17110;52.602;12.998;2023-03-03T15:56:25;5.50;99.90
30300;DHT22;17110;52.602;12.998;2023-03-03T16:13:33;5.00;99.90
30300;DHT22;17110;52.602;12.998;2023-03-03T16:23:55;4.60;99.90
30300;DHT22;17110;52.602;12.998;2023-03-03T16:26:33;4.50;99.90
30300;DHT22;17110;52.602;12.998;2023-03-03T16:29:32;4.30;99.90
30300;DHT22;17110;52.602;12.998;2023-03-03T16:32:20;4.30;99.90
30300;DHT22;17110;52.602;12.998;2023-03-03T16:37:44;4.20;99.90
30300;DHT22;17110;52.602;12.998;2023-03-03T16:46:24;3.80;99.90
30300;DHT22;17110;52.602;12.998;2023-03-03T16:51:58;3.50;99.90
30300;DHT22;17110;52.602;12.998;2023-03-03T16:54:54;3.50;99.90
30300;DHT22;17110;52.602;12.998;2023-03-03T16:57:32;3.60;99.90
30300;DHT22;17110;52.602;12.998;2023-03-03T17:05:48;3.20;99.90
30300;DHT22;17110;52.602;12.998;2023-03-03T17:14:14;3.10;99.90
30300;DHT22;17110;52.602;12.998;2023-03-03T17:16:59;3.10;99.90
30300;DHT22;17110;52.602;12.998;2023-03-03T17:19:43;3.10;99.90
30300;DHT22;17110;52.602;12.998;2023-03-03T17:22:33;3.50;99.90
30300;DHT22;17110;52.602;12.998;2023-03-03T17:25:10;3.50;99.90
30300;DHT22;17110;52.602;12.998;2023-03-03T17:28:47;3.70;99.90
30300;DHT22;17110;52.602;12.998;2023-03-03T17:36:50;3.80;99.90
30300;DHT22;17110;52.602;12.998;2023-03-03T17:42:00;3.90;99.90
30300;DHT22;17110;52.602;12.998;2023-03-03T17:51:04;3.90;99.90
30300;DHT22;17110;52.602;12.998;2023-03-03T17:56:38;3.70;99.90
30300;DHT22;17110;52.602;12.998;2023-03-03T18:16:07;4.00;99.90
30300;DHT22;17110;52.602;12.998;2023-03-03T18:19:19;4.00;99.90
30300;DHT22;17110;52.602;12.998;2023-03-03T18:22:05;4.10;99.90
30300;DHT22;17110;52.602;12.998;2023-03-03T18:24:53;4.00;99.90
30300;DHT22;17110;52.602;12.998;2023-03-03T18:33:06;4.20;99.90
30300;DHT22;17110;52.602;12.998;2023-03-03T18:35:42;4.20;99.90
30300;DHT22;17110;52.602;12.998;2023-03-03T18:40:59;4.10;99.90
30300;DHT22;17110;52.602;12.998;2023-03-03T18:49:11;4.20;99.90
30300;DHT22;17110;52.602;12.998;2023-03-03T18:59:48;4.20;99.90
30300;DHT22;17110;52.602;12.998;2023-03-03T19:02:19;4.20;99.90
30300;DHT22;17110;52.602;12.998;2023-03-03T19:08:03;4.10;99.90
30300;DHT22;17110;52.602;12.998;2023-03-03T19:10:51;4.00;99.90
30300;DHT22;17110;52.602;12.998;2023-03-03T19:16:06;4.10;99.90
30300;DHT22;17110;52.602;12.998;2023-03-03T19:21:24;4.10;99.90
30300;DHT22;17110;52.602;12.998;2023-03-03T19:32:40;4.30;99.90
30300;DHT22;17110;52.602;12.998;2023-03-03T19:38:53;4.20;99.90
30300;DHT22;17110;52.602;12.998;2023-03-03T19:52:41;4.20;99.90
30300;DHT22;17110;52.602;12.998;2023-03-03T19:55:22;4.20;99.90
30300;DHT22;17110;52.602;12.998;2023-03-03T20:00:41;4.20;99.90
30300;DHT22;17110;52.602;12.998;2023-03-03T20:09:21;4.10;99.90
30300;DHT22;17110;52.602;12.998;2023-03-03T20:14:46;4.10;99.90
30300;DHT22;17110;52.602;12.998;2023-03-03T20:20:06;4.10;99.90
30300;DHT22;17110;52.602;12.998;2023-03-03T20:28:46;4.10;99.90
30300;DHT22;17110;52.602;12.998;2023-03-03T20:31:48;4.20;99.90
30300;DHT22;17110;52.602;12.998;2023-03-03T20:42:57;4.10;99.90
30300;DHT22;17110;52.602;12.998;2023-03-03T20:45:36;4.20;99.90
30300;DHT22;17110;52.602;12.998;2023-03-03T20:56:30;4.00;99.90
30300;DHT22;17110;52.602;12.998;2023-03-03T20:59:22;3.80;99.90
30300;DHT22;17110;52.602;12.998;2023-03-03T21:04:33;3.90;99.90
30300;DHT22;17110;52.602;12.998;2023-03-03T21:07:02;4.00;99.90
30300;DHT22;17110;52.602;12.998;2023-03-03T21:09:34;3.90;99.90
30300;DHT22;17110;52.602;12.998;2023-03-03T21:14:58;3.90;99.90
30300;DHT22;17110;52.602;12.998;2023-03-03T21:17:26;3.90;99.90
30300;DHT22;17110;52.602;12.998;2023-03-03T21:19:53;3.90;99.90
30300;DHT22;17110;52.602;12.998;2023-03-03T21:22:19;3.80;99.90
30300;DHT22;17110;52.602;12.998;2023-03-03T21:24:51;3.80;99.90
30300;DHT22;17110;52.602;12.998;2023-03-03T21:30:02;3.70;99.90
30300;DHT22;17110;52.602;12.998;2023-03-03T21:32:40;3.70;99.90
30300;DHT22;17110;52.602;12.998;2023-03-03T21:35:12;3.70;99.90
30300;DHT22;17110;52.602;12.998;2023-03-03T21:40:26;3.80;99.90
30300;DHT22;17110;52.602;12.998;2023-03-03T21:42:57;3.80;99.90
30300;DHT22;17110;52.602;12.998;2023-03-03T21:45:24;3.80;99.90
30300;DHT22;17110;52.602;12.998;2023-03-03T21:47:52;3.70;99.90
30300;DHT22;17110;52.602;12.998;2023-03-03T21:50:19;3.80;99.90
30300;DHT22;17110;52.602;12.998;2023-03-03T21:52:46;3.70;99.90
30300;DHT22;17110;52.602;12.998;2023-03-03T21:55:12;3.60;99.90
30300;DHT22;17110;52.602;12.998;2023-03-03T21:57:38;3.60;99.90
30300;DHT22;17110;52.602;12.998;2023-03-03T22:00:05;3.60;99.90
30300;DHT22;17110;52.602;12.998;2023-03-03T22:02:31;3.60;99.90
30300;DHT22;17110;52.602;12.998;2023-03-03T22:04:57;3.60;99.90
30300;DHT22;17110;52.602;12.998;2023-03-03T22:07:23;3.50;99.90
30300;DHT22;17110;52.602;12.998;2023-03-03T22:09:49;3.60;99.90
30300;DHT22;17110;52.602;12.998;2023-03-03T22:12:15;3.50;99.90
30300;DHT22;17110;52.602;12.998;2023-03-03T22:14:41;3.50;99.90
30300;DHT22;17110;52.602;12.998;2023-03-03T22:17:07;3.50;99.90
30300;DHT22;17110;52.602;12.998;2023-03-03T22:19:33;3.60;99.90